Time;durP1;ratioP1;P1;durP2;ratioP2;P2;SDS_P1;SDS_P2;PMS_P1;PMS_P2;Temp;Humidity;BMP_temperature;BMP_pressure;BME280_temperature;BME280_humidity;BME280_pressure;Samples;Min_cycle;Max_cycle;Signal;HPM_P1;HPM_P2
2023/01/15 00:01:30;;;;;;;9.18;4.13;;;;;;;-1.08;67.16;100725.56;4790430;29;20395;-83
2023/01/15 00:03:58;;;;;;;10.68;4.82;;;;;;;-2.23;67.32;100547.56;4778498;29;20525;-83
2023/01/15 00:06:26;;;;;;;13.98;5.07;;;;;;;-1.14;67.07;100699.69;4787534;29;20537;-82
2023/01/15 00:08:53;;;;;;;10.48;4.70;;;;;;;-2.37;66.87;100481.38;4786817;29;20051;-84
2023/01/15 00:11:36;;;;;;;9.90;4.72;;;;;;;-1.63;66.86;100616.25;4759342;30;20422;-83
2023/01/15 00:14:02;;;;;;;9.77;4.43;;;;;;;-1.90;66.79;100583.34;4771552;30;20040;-84
2023/01/15 00:16:31;;;;;;;11.00;4.95;;;;;;;-1.18;66.48;100715.63;4772177;30;20048;-84
2023/01/15 00:19:00;;;;;;;10.13;5.07;;;;;;;-1.13;67.03;100710.00;4777528;29;20570;-82
2023/01/15 00:21:27;;;;;;;14.13;4.97;;;;;;;-1.14;66.96;100709.91;4758126;29;20127;-82
2023/01/15 00:29:27;;;;;;;11.88;5.05;;;;;;;-1.53;67.33;100659.31;4785530;29;20043;-82
2023/01/15 00:31:59;;;;;;;10.55;4.80;;;;;;;-1.20;66.92;100700.25;4786147;29;20051;-83
2023/01/15 00:34:25;;;;;;;;;;;;;;;-0.94;66.51;100724.59;4771989;30;20517;-82
2023/01/15 00:36:52;;;;;;;10.60;4.22;;;;;;;-1.34;66.68;100655.22;4772514;29;19956;-83
2023/01/15 00:39:18;;;;;;;10.73;4.70;;;;;;;-0.95;67.22;100722.84;4758564;30;20046;-84
2023/01/15 00:41:46;;;;;;;15.82;4.82;;;;;;;-1.50;66.98;100643.31;4772645;30;20476;-84
2023/01/15 00:44:15;;;;;;;12.95;5.03;;;;;;;-1.41;66.84;100654.91;4772429;30;20044;-83
2023/01/15 00:46:41;;;;;;;11.13;4.63;;;;;;;-1.21;66.64;100666.16;4773673;29;20044;-84
2023/01/15 00:49:10;;;;;;;14.52;5.13;;;;;;;-0.98;66.87;100707.34;4774236;30;20053;-84
2023/01/15 00:51:36;;;;;;;13.50;4.57;;;;;;;-1.00;67.24;100706.41;4757548;29;20533;-82
2023/01/15 00:54:03;;;;;;;15.43;5.22;;;;;;;-0.97;67.28;100709.13;4772726;30;20068;-83
2023/01/15 00:56:30;;;;;;;10.15;4.22;;;;;;;-0.97;66.79;100711.66;4787236;29;20039;-83
2023/01/15 00:58:57;;;;;;;11.65;4.15;;;;;;;-1.54;67.14;100612.50;4786677;30;20051;-84
2023/01/15 01:01:23;;;;;;;11.63;4.60;;;;;;;-1.76;67.05;100556.88;4772332;30;20051;-83
2023/01/15 01:03:51;;;;;;;11.38;4.72;;;;;;;-1.01;66.13;100691.88;4771789;29;20051;-81
2023/01/15 01:06:19;;;;;;;14.05;5.63;;;;;;;-1.26;66.66;100652.28;4772013;29;20043;-83
2023/01/15 01:08:47;;;;;;;15.25;4.65;;;;;;;-1.44;66.56;100624.09;4776480;30;20120;-84
2023/01/15 01:11:16;;;;;;;10.27;4.45;;;;;;;-0.88;66.70;100697.63;4773398;30;20039;-83
2023/01/15 01:13:42;;;;;;;12.10;4.47;;;;;;;-1.21;66.84;100657.63;4760353;30;20089;-83
2023/01/15 01:16:32;;;;;;;10.18;4.18;;;;;;;-1.14;66.95;100659.72;4774612;30;20043;-82
2023/01/15 01:19:02;;;;;;;11.68;4.20;;;;;;;-1.12;66.82;100668.34;4781078;30;20051;-82
2023/01/15 01:21:29;;;;;;;10.55;4.40;;;;;;;-1.13;66.30;100663.13;4763607;30;20077;-82
2023/01/15 01:24:00;;;;;;;10.27;4.28;;;;;;;-1.88;66.35;100549.47;4776311;30;20048;-83
2023/01/15 01:26:29;;;;;;;9.07;4.05;;;;;;;-1.93;66.93;100533.03;4786121;29;20091;-83
2023/01/15 01:29:21;;;;;;;15.65;5.13;;;;;;;-1.52;66.77;100610.91;5147949;27;20420;-84
2023/01/15 01:31:49;;;;;;;11.00;4.93;;;;;;;-1.72;66.77;100575.81;5116390;28;20045;-83
2023/01/15 01:34:18;;;;;;;16.48;5.25;;;;;;;-1.18;66.99;100670.56;5117735;28;20031;-83
2023/01/15 01:36:44;;;;;;;14.32;5.20;;;;;;;-1.70;67.02;100581.88;5135065;28;20036;-82
2023/01/15 01:39:15;;;;;;;10.65;4.72;;;;;;;-1.67;66.29;100559.06;5117332;28;20046;-82
2023/01/15 01:41:43;;;;;;;11.88;4.53;;;;;;;-1.28;66.98;100615.56;5100579;28;20026;-82
2023/01/15 01:44:31;;;;;;;12.55;4.85;;;;;;;-0.98;66.46;100671.56;5117684;28;20041;-82
2023/01/15 01:47:14;;;;;;;10.32;4.05;;;;;;;-1.27;66.26;100647.97;5116681;28;20024;-83
2023/01/15 01:49:45;;;;;;;16.13;4.18;;;;;;;-1.95;66.26;100529.53;5134188;28;20020;-82
2023/01/15 01:52:22;;;;;;;15.77;5.20;;;;;;;-1.07;66.27;100686.44;5100153;28;20050;-83
2023/01/15 01:54:49;;;;;;;11.05;5.05;;;;;;;-1.08;66.27;100683.00;5135114;28;20039;-83
2023/01/15 01:57:17;;;;;;;12.48;5.30;;;;;;;-1.02;66.78;100679.91;5100110;28;20047;-82
2023/01/15 01:59:44;;;;;;;10.75;4.55;;;;;;;-1.43;66.59;100601.97;5100261;28;20044;-83
2023/01/15 02:02:10;;;;;;;9.77;4.82;;;;;;;-0.96;66.53;100692.97;5113306;28;20035;-83
2023/01/15 02:04:38;;;;;;;15.15;5.00;;;;;;;-1.03;66.82;100662.81;5093149;28;20039;-82
2023/01/15 02:07:04;;;;;;;12.13;4.40;;;;;;;-0.95;66.14;100664.06;5091795;28;20031;-82
2023/01/15 02:09:31;;;;;;;10.02;5.35;;;;;;;-1.67;66.10;100557.38;5087543;28;20107;-82
2023/01/15 02:12:07;;;;;;;11.82;4.90;;;;;;;-1.04;66.60;100663.63;5086914;28;20063;-84
2023/01/15 02:14:57;;;;;;;15.52;5.35;;;;;;;-0.93;66.63;100671.84;5098701;28;20040;-85
2023/01/15 02:17:36;;;;;;;11.07;4.78;;;;;;;-0.92;66.78;100679.56;5095368;28;20040;-84
2023/01/15 02:20:23;;;;;;;11.65;4.60;;;;;;;-1.59;66.25;100556.91;5098006;28;20527;-85
2023/01/15 02:23:19;;;;;;;14.95;4.55;;;;;;;-1.12;66.24;100627.47;5080544;28;20072;-84
2023/01/15 02:26:10;;;;;;;11.80;5.10;;;;;;;-1.56;66.92;100555.38;5080019;28;20050;-83
2023/01/15 02:28:46;;;;;;;14.02;5.18;;;;;;;-1.12;66.63;100626.56;5076346;28;20519;-84
2023/01/15 02:31:23;;;;;;;14.35;5.10;;;;;;;-1.64;66.43;100535.38;5098576;28;20063;-82
2023/01/15 02:34:10;;;;;;;13.32;5.20;;;;;;;-0.89;66.48;100654.97;5080910;28;20040;-83
2023/01/15 02:36:45;;;;;;;11.63;4.55;;;;;;;-1.08;66.23;100652.34;5094086;28;20040;-83
2023/01/15 02:39:22;;;;;;;16.63;5.63;;;;;;;-0.91;66.79;100660.03;5054620;28;20046;-83
2023/01/15 02:41:50;;;;;;;17.00;5.50;;;;;;;-1.01;66.77;100640.78;5063617;28;20106;-82
2023/01/15 02:44:21;;;;;;;8.90;4.00;;;;;;;-0.97;66.52;100654.59;5077616;28;20518;-83
2023/01/15 02:46:49;;;;;;;12.80;4.65;;;;;;;-1.21;66.56;100622.72;5077499;28;20047;-84
2023/01/15 02:49:19;;;;;;;11.82;4.13;;;;;;;-1.23;66.61;100626.91;5057389;28;20113;-83
2023/01/15 02:52:35;;;;;;;14.73;5.50;;;;;;;-0.98;66.79;100661.34;5057874;28;20036;-84
2023/01/15 02:55:13;;;;;;;14.52;4.55;;;;;;;-1.75;66.34;100547.56;5040387;28;20048;-84
2023/01/15 02:57:46;;;;;;;14.07;4.57;;;;;;;-0.98;66.47;100661.34;5057037;28;20032;-84
2023/01/15 03:00:18;;;;;;;11.93;5.30;;;;;;;-0.96;66.29;100664.00;5057332;28;20066;-83
2023/01/15 03:03:04;;;;;;;17.92;5.32;;;;;;;-1.68;66.52;100563.28;5073056;28;20067;-82
2023/01/15 03:05:41;;;;;;;18.88;4.68;;;;;;;-1.68;66.47;100547.09;5056485;28;20051;-83
2023/01/15 03:08:13;;;;;;;14.50;5.40;;;;;;;-0.99;66.27;100663.84;5031921;28;20103;-84
2023/01/15 03:10:53;;;;;;;12.40;4.68;;;;;;;-1.14;66.22;100612.84;5020516;28;20139;-85
2023/01/15 03:13:34;;;;;;;13.73;5.30;;;;;;;-1.27;66.46;100607.09;5020652;28;20068;-84
2023/01/15 03:19:01;;;;;;;14.48;5.45;;;;;;;-1.60;65.98;100535.59;5056662;28;20054;-84
2023/01/15 03:21:40;;;;;;;16.05;4.82;;;;;;;-0.89;66.25;100670.31;5073860;28;20064;-85
2023/01/15 03:24:09;;;;;;;14.45;5.45;;;;;;;-0.88;66.39;100661.84;5040253;28;20142;-82
2023/01/15 03:26:36;;;;;;;12.15;4.70;;;;;;;-1.33;66.34;100596.56;5073464;28;20508;-83
2023/01/15 03:29:07;;;;;;;17.52;5.50;;;;;;;-2.28;65.81;100437.66;5073687;28;20060;-83
2023/01/15 03:31:34;;;;;;;15.15;5.20;;;;;;;-1.18;66.33;100639.00;5062855;28;20042;-83
2023/01/15 03:34:01;;;;;;;18.15;5.80;;;;;;;-1.57;66.48;100561.28;5084660;28;20499;-83
2023/01/15 03:36:27;;;;;;;15.90;5.45;;;;;;;-2.21;65.65;100467.78;5057941;28;20051;-84
2023/01/15 03:38:59;;;;;;;10.95;5.45;;;;;;;-1.40;66.12;100603.03;5057737;28;20032;-83
2023/01/15 03:42:00;;;;;;;17.42;5.47;;;;;;;-0.95;66.38;100674.28;5057357;28;20036;-84
2023/01/15 03:44:44;;;;;;;21.73;5.18;;;;;;;-1.57;66.42;100558.72;5057057;28;20048;-85
2023/01/15 03:47:33;;;;;;;14.75;5.00;;;;;;;-0.91;65.69;100670.25;5082131;28;20087;-84
2023/01/15 03:50:28;;;;;;;23.23;6.40;;;;;;;-1.42;66.90;100573.09;5055907;28;20392;-86
2023/01/15 03:52:57;;;;;;;17.00;5.35;;;;;;;-0.89;66.29;100686.53;5053615;28;20048;-85
2023/01/15 03:55:38;;;;;;;17.23;5.68;;;;;;;-1.25;66.59;100636.16;5057859;28;20055;-84
2023/01/15 03:58:23;;;;;;;18.85;5.25;;;;;;;-0.80;66.66;100694.66;5058727;28;20495;-85
2023/01/15 04:00:58;;;;;;;24.13;5.82;;;;;;;-1.44;66.31;100577.25;5039721;28;20052;-85
2023/01/15 04:03:27;;;;;;;13.05;5.25;;;;;;;-1.12;66.32;100645.34;5039905;28;20040;-83
2023/01/15 04:05:56;;;;;;;14.93;5.00;;;;;;;-0.71;66.24;100703.63;5023804;28;20082;-83
2023/01/15 04:08:25;;;;;;;12.05;5.13;;;;;;;-0.70;66.12;100693.44;5030055;28;20037;-83
2023/01/15 04:11:00;;;;;;;16.55;4.93;;;;;;;-1.32;65.70;100592.34;5036109;28;20399;-85
2023/01/15 04:13:30;;;;;;;15.68;5.95;;;;;;;-0.95;66.59;100653.84;5035528;28;20546;-84
2023/01/15 04:15:56;;;;;;;21.45;5.68;;;;;;;-1.48;65.69;100583.00;5052918;28;20479;-84
2023/01/15 04:18:24;;;;;;;16.35;5.57;;;;;;;-1.94;65.57;100495.56;5054986;28;20036;-83
2023/01/15 04:20:50;;;;;;;16.00;5.40;;;;;;;-2.02;65.96;100495.16;5055174;28;20384;-84
2023/01/15 04:23:17;;;;;;;14.70;5.22;;;;;;;-1.98;66.00;100489.41;5038641;28;20483;-84
2023/01/15 04:25:43;;;;;;;18.90;5.40;;;;;;;-1.94;66.19;100503.22;5055349;28;20039;-82
2023/01/15 04:28:11;;;;;;;14.55;5.53;;;;;;;-1.80;66.41;100537.13;5073039;28;20569;-83
2023/01/15 04:30:42;;;;;;;12.80;5.47;;;;;;;-1.28;66.41;100584.91;5055703;28;20113;-84
2023/01/15 04:33:08;;;;;;;13.30;5.03;;;;;;;-1.56;66.30;100557.06;5072232;28;20158;-84
2023/01/15 04:35:37;;;;;;;18.50;6.60;;;;;;;-2.06;66.27;100465.19;5055583;28;20044;-83
2023/01/15 04:38:11;;;;;;;13.85;5.30;;;;;;;-1.92;66.34;100505.84;5056065;28;20122;-83
2023/01/15 04:46:08;;;;;;;17.65;5.93;;;;;;;-1.54;65.87;100550.34;5071961;28;20511;-83
2023/01/15 04:48:39;;;;;;;15.07;6.13;;;;;;;-1.36;66.16;100575.97;5039517;28;20406;-85
2023/01/15 04:51:17;;;;;;;18.60;6.22;;;;;;;-0.94;65.87;100642.84;5056267;28;20067;-82
2023/01/15 04:53:43;;;;;;;14.18;5.90;;;;;;;-0.72;66.20;100687.38;5071750;28;20472;-84
2023/01/15 04:56:10;;;;;;;14.07;5.35;;;;;;;-1.92;66.11;100483.78;5071445;28;20063;-84
2023/01/15 04:58:38;;;;;;;15.93;5.47;;;;;;;-0.66;66.14;100671.50;5038435;28;20146;-83
2023/01/15 05:01:11;;;;;;;21.58;6.10;;;;;;;-0.94;65.80;100637.72;5076462;28;20067;-83
2023/01/15 05:03:37;;;;;;;22.05;5.82;;;;;;;-0.93;66.35;100630.94;5075402;28;20048;-85
2023/01/15 05:06:05;;;;;;;23.33;6.13;;;;;;;-0.67;66.45;100685.09;5071035;28;20139;-82
2023/01/15 05:08:32;;;;;;;17.08;6.80;;;;;;;-1.49;66.31;100537.84;5043242;28;20047;-84
2023/01/15 05:11:06;;;;;;;19.15;6.50;;;;;;;-1.64;66.22;100489.41;5050866;28;20041;-84
2023/01/15 05:13:37;;;;;;;13.30;5.40;;;;;;;-0.59;66.39;100670.97;5051462;28;20071;-83
2023/01/15 05:16:31;;;;;;;15.93;5.88;;;;;;;-1.94;65.41;100464.94;5053872;28;20522;-84
2023/01/15 05:19:12;;;;;;;;;;;;;;;;;;;;;
2023/01/15 05:22:05;;;;;;;22.77;6.20;;;;;;;-1.04;65.37;100594.63;5072550;28;20432;-87
2023/01/15 05:25:26;;;;;;;19.10;5.70;;;;;;;-1.12;65.62;100604.47;5054595;28;20535;-86
2023/01/15 05:29:00;;;;;;;14.48;5.95;;;;;;;-0.70;66.34;100662.78;5054462;28;20056;-84
2023/01/15 05:31:45;;;;;;;;;;;;;;;;;;;;;
2023/01/15 05:43:53;;;;;;;;;;;;;;;;;;;;;
2023/01/15 05:47:20;;;;;;;15.90;6.50;;;;;;;-0.81;65.79;100658.81;4934347;28;20051;-83
2023/01/15 05:49:48;;;;;;;23.08;6.03;;;;;;;-0.96;65.67;100624.00;4950793;28;20086;-84
2023/01/15 05:52:24;;;;;;;16.75;5.97;;;;;;;-1.47;65.43;100556.69;4946149;28;20045;-83
2023/01/15 05:55:23;;;;;;;16.63;6.53;;;;;;;-1.69;65.37;100523.22;4987906;28;20069;-82
2023/01/15 06:02:04;;;;;;;23.70;7.03;;;;;;;-0.94;65.34;100670.94;4953750;28;20124;-82
2023/01/15 06:04:41;;;;;;;13.73;5.75;;;;;;;-0.94;65.92;100673.50;4994302;28;20040;-82
2023/01/15 06:08:21;;;;;;;23.90;6.50;;;;;;;-2.00;66.09;100497.78;5013591;28;20132;-83
2023/01/15 06:11:24;;;;;;;16.25;5.88;;;;;;;-1.55;66.08;100541.81;4981839;28;20034;-81
2023/01/15 06:13:53;;;;;;;21.52;7.53;;;;;;;-1.87;65.72;100484.00;4994751;28;20041;-83
2023/01/15 06:16:28;;;;;;;18.05;6.70;;;;;;;-1.72;65.60;100528.19;5003933;28;20065;-83
2023/01/15 06:18:56;;;;;;;20.23;7.10;;;;;;;-1.80;65.92;100515.81;5021293;28;20042;-83
2023/01/15 06:21:51;;;;;;;16.17;6.50;;;;;;;-1.97;65.67;100463.09;5075364;28;20127;-84
2023/01/15 06:24:38;;;;;;;19.05;6.97;;;;;;;-2.03;65.12;100432.19;5059884;28;20411;-85
2023/01/15 06:27:38;;;;;;;20.25;6.85;;;;;;;-1.90;65.61;100460.88;5073266;28;20468;-82
2023/01/15 06:34:56;;;;;;;22.33;6.40;;;;;;;-1.86;65.89;100473.00;5055761;28;20033;-85
2023/01/15 06:50:18;;;;;;;16.83;5.57;;;;;;;-0.71;64.99;100666.13;5015535;28;20519;-85
2023/01/15 06:53:19;;;;;;;18.90;7.65;;;;;;;-1.26;65.70;100590.09;4921988;29;20063;-83
2023/01/15 06:59:13;;;;;;;21.27;7.07;;;;;;;-1.94;65.14;100452.19;4935434;29;20046;-84
2023/01/15 07:02:22;;;;;;;20.20;6.50;;;;;;;-0.65;64.88;100688.56;4924774;29;20052;-83
2023/01/15 07:05:40;;;;;;;17.38;6.93;;;;;;;-0.63;65.67;100680.19;4937696;29;20079;-84
2023/01/15 07:21:50;;;;;;;21.73;6.93;;;;;;;-0.91;65.26;100614.88;4959115;29;20043;-84
2023/01/15 07:24:55;;;;;;;17.92;6.32;;;;;;;-1.62;65.10;100521.00;4922721;29;20048;-84
2023/01/15 07:36:25;;;;;;;16.88;6.85;;;;;;;-1.77;64.96;100485.34;4918447;29;20051;-86
2023/01/15 08:00:01;;;;;;;16.08;6.63;;;;;;;-1.11;63.72;100528.69;4810308;29;20049;-85
2023/01/15 08:07:47;;;;;;;;;;;;;;;;;;;;;
2023/01/15 08:18:56;;;;;;;21.15;5.90;;;;;;;-1.55;64.63;100470.34;4904517;29;20047;-85
2023/01/15 08:27:07;;;;;;;;;;;;;;;;;;;;;
2023/01/15 08:30:58;;;;;;;;;;;;;;;;;;;;;
2023/01/15 08:34:18;;;;;;;14.38;5.53;;;;;;;-0.92;64.10;100536.47;4780093;29;20058;-83
2023/01/15 08:46:23;;;;;;;16.13;6.18;;;;;;;-0.25;63.91;100612.94;4840082;29;20647;-84
2023/01/15 08:53:14;;;;;;;12.80;5.97;;;;;;;0.00;63.48;100658.50;4876376;29;20067;-85
2023/01/15 08:55:41;;;;;;;14.80;6.15;;;;;;;-1.02;63.99;100474.63;4943295;28;20052;-82
2023/01/15 08:58:40;;;;;;;14.32;6.28;;;;;;;0.13;63.34;100640.34;5015584;28;20033;-83
2023/01/15 09:01:54;;;;;;;;;;;;;;;;;;;;;
2023/01/15 09:05:44;;;;;;;16.30;6.43;;;;;;;-1.06;63.44;100437.81;5013099;28;20037;-84
2023/01/15 10:05:44;;;;;;;9.15;4.93;;;;;;;0.88;61.11;100623.22;4939638;29;20097;-84
2023/01/15 10:12:34;;;;;;;17.98;5.05;;;;;;;0.40;61.02;100569.84;4946611;29;20406;-84
2023/01/15 10:14:41;;;;;;;9.88;4.88;;;;;;;0.60;61.12;100615.16;4961064;29;20027;-82
2023/01/15 10:17:41;;;;;;;10.60;4.68;;;;;;;0.25;61.04;100573.50;4942225;29;20526;-85
2023/01/15 10:25:30;;;;;;;15.70;5.13;;;;;;;0.15;62.11;100525.22;4979609;28;20034;-83
2023/01/15 10:28:12;;;;;;;12.07;5.30;;;;;;;0.24;61.23;100541.00;4981241;28;20127;-80
2023/01/15 10:30:55;;;;;;;15.50;5.20;;;;;;;0.33;61.34;100581.50;4965283;28;20497;-80
2023/01/15 10:47:14;;;;;;;18.63;5.40;;;;;;;0.11;61.29;100541.28;4813478;29;20050;-82
2023/01/15 10:54:33;;;;;;;18.17;5.78;;;;;;;0.70;60.32;100616.44;4898849;28;20160;-81
2023/01/15 10:57:27;;;;;;;11.63;5.65;;;;;;;-0.23;60.49;100475.75;4995412;28;20157;-83
2023/01/15 11:00:07;;;;;;;9.85;4.50;;;;;;;0.42;60.71;100593.84;4995008;28;20050;-82
2023/01/15 11:03:00;;;;;;;8.13;4.75;;;;;;;0.53;60.33;100602.00;4961733;28;20092;-83
2023/01/15 11:05:28;;;;;;;;;;;;;;;0.55;60.39;100598.69;4994804;28;20049;-83
2023/01/15 11:08:12;;;;;;;10.50;5.20;;;;;;;0.07;60.57;100512.09;4961868;28;20033;-83
2023/01/15 11:10:41;;;;;;;10.40;5.10;;;;;;;-0.06;60.90;100485.06;4977599;28;20050;-82
2023/01/15 11:21:41;;;;;;;18.70;5.45;;;;;;;0.29;60.54;100569.38;4977826;28;20597;-84
2023/01/15 11:24:15;;;;;;;10.52;5.00;;;;;;;-0.34;60.13;100463.38;4952560;28;20129;-84
2023/01/15 11:26:47;;;;;;;15.85;5.38;;;;;;;0.24;60.75;100555.47;4970137;28;20044;-84
2023/01/15 11:29:15;;;;;;;11.50;5.13;;;;;;;-0.22;60.71;100473.25;4977383;28;20501;-83
2023/01/15 11:31:42;;;;;;;14.18;5.90;;;;;;;-0.12;60.66;100479.69;4995242;28;20046;-84
2023/01/15 11:34:23;;;;;;;16.38;5.72;;;;;;;-0.36;60.18;100416.38;4959814;28;20053;-83
2023/01/15 11:37:04;;;;;;;14.52;5.03;;;;;;;0.45;59.79;100553.00;4978281;28;20042;-83
2023/01/15 11:39:39;;;;;;;10.95;5.18;;;;;;;-0.31;60.64;100417.44;4961368;28;20521;-83
2023/01/15 11:52:30;;;;;;;7.85;4.22;;;;;;;-0.82;60.26;100356.34;4976417;28;20057;-81
2023/01/15 11:55:55;;;;;;;7.20;3.97;;;;;;;-0.02;60.57;100510.00;4899120;28;20055;-84
2023/01/15 11:58:23;;;;;;;15.30;4.20;;;;;;;-0.27;59.95;100476.41;4950456;28;20042;-83
2023/01/15 12:01:28;;;;;;;13.27;4.88;;;;;;;-0.96;60.03;100368.47;4993364;28;20038;-82
2023/01/15 12:07:55;;;;;;;10.10;4.82;;;;;;;-0.45;60.29;100413.38;4974012;28;20463;-82
2023/01/15 12:11:02;;;;;;;10.05;4.55;;;;;;;-0.20;60.31;100440.06;4993655;28;20049;-83
2023/01/15 12:13:57;;;;;;;17.00;4.90;;;;;;;0.42;60.32;100565.69;4963935;28;20034;-82
2023/01/15 12:16:27;;;;;;;15.05;5.25;;;;;;;0.28;59.80;100557.38;4963050;28;20058;-82
2023/01/15 12:19:13;;;;;;;14.52;5.72;;;;;;;-0.04;60.58;100518.41;4970947;28;20072;-82
2023/01/15 12:22:56;;;;;;;15.82;5.53;;;;;;;0.02;59.90;100557.06;4973218;28;20148;-83
2023/01/15 12:25:44;;;;;;;14.18;5.35;;;;;;;-0.03;60.04;100549.19;4940752;28;20043;-81
2023/01/15 12:28:39;;;;;;;14.82;5.15;;;;;;;-0.05;60.54;100558.47;4975972;28;20056;-85
2023/01/15 12:31:47;;;;;;;8.82;4.57;;;;;;;-0.01;60.25;100565.47;4973090;28;20059;-85
2023/01/15 12:34:49;;;;;;;13.88;5.10;;;;;;;0.08;60.85;100556.50;4963205;28;20043;-85
2023/01/15 12:37:37;;;;;;;9.02;5.13;;;;;;;-0.39;59.88;100481.84;4975239;28;20062;-83
2023/01/15 12:40:12;;;;;;;15.05;4.88;;;;;;;0.01;60.04;100537.38;4974145;28;20049;-82
2023/01/15 12:45:50;;;;;;;11.88;4.88;;;;;;;-0.32;60.31;100506.91;4975346;28;20043;-82
2023/01/15 12:48:58;;;;;;;;;;;;;;;;;;;;;
2023/01/15 12:52:08;;;;;;;9.30;4.65;;;;;;;-0.23;60.48;100511.56;4975433;28;20055;-79
2023/01/15 12:55:30;;;;;;;11.02;4.20;;;;;;;0.07;60.49;100557.28;4977086;28;20101;-81
2023/01/15 13:07:36;;;;;;;8.85;3.83;;;;;;;-0.13;60.36;100585.41;4831892;29;20072;-84
2023/01/15 13:10:56;;;;;;;11.68;4.32;;;;;;;-0.22;60.67;100579.84;4858585;29;20510;-82
2023/01/15 13:13:40;;;;;;;10.13;4.15;;;;;;;-1.12;59.88;100448.63;4834050;29;20049;-82
2023/01/15 13:17:13;;;;;;;;;;;;;;;;;;;;;
2023/01/15 13:20:42;;;;;;;7.65;4.50;;;;;;;-0.24;60.53;100590.00;4853769;29;20580;-81
2023/01/15 13:24:06;;;;;;;8.65;4.35;;;;;;;-0.39;60.65;100571.34;4866382;29;20167;-84
2023/01/15 13:31:35;;;;;;;9.75;4.13;;;;;;;-1.38;59.94;100421.78;4906165;29;20043;-87
2023/01/15 13:34:31;;;;;;;8.70;4.15;;;;;;;-1.67;60.02;100365.09;4938198;29;20051;-82
2023/01/15 13:37:53;;;;;;;11.18;4.20;;;;;;;-0.25;60.54;100589.91;4939370;29;20043;-82
2023/01/15 13:41:01;;;;;;;7.45;3.63;;;;;;;-1.05;60.20;100488.13;4939622;29;20035;-84
2023/01/15 13:44:21;;;;;;;10.13;3.75;;;;;;;-0.77;60.26;100549.13;4936146;29;20138;-82
2023/01/15 13:47:14;;;;;;;7.93;3.70;;;;;;;-0.95;60.38;100538.00;4935545;29;20408;-83
2023/01/15 13:50:02;;;;;;;;;;;;;;;;;;;;;
2023/01/15 13:53:07;;;;;;;10.75;4.53;;;;;;;-0.48;60.62;100623.81;4955609;28;20062;-81
2023/01/15 13:56:04;;;;;;;7.18;3.72;;;;;;;-1.72;60.46;100425.22;4955896;29;20146;-80
2023/01/15 13:58:42;;;;;;;10.65;3.75;;;;;;;-1.12;60.25;100509.94;4926930;29;20486;-83
2023/01/15 14:01:35;;;;;;;8.23;3.20;;;;;;;-0.65;60.67;100593.97;4955465;28;20098;-83
2023/01/15 14:04:41;;;;;;;12.45;3.85;;;;;;;-0.70;60.81;100596.31;4955190;29;20491;-82
2023/01/15 14:07:45;;;;;;;11.63;3.92;;;;;;;-0.99;60.37;100546.31;4952492;29;20055;-83
2023/01/15 14:10:18;;;;;;;9.55;3.45;;;;;;;-0.68;61.42;100594.72;4952880;28;20055;-81
2023/01/15 14:13:44;;;;;;;;;;;;;;;;;;;;;
2023/01/15 14:16:51;;;;;;;;;;;;;;;-0.72;60.54;100597.91;4950286;29;20047;-83
2023/01/15 14:20:03;;;;;;;7.40;3.58;;;;;;;-1.33;60.47;100504.63;4989030;28;19924;-83
2023/01/15 14:23:20;;;;;;;9.23;3.55;;;;;;;-0.76;60.71;100619.91;4959476;28;20058;-82
2023/01/15 14:26:14;;;;;;;8.82;3.47;;;;;;;-0.79;61.13;100614.63;4920320;28;20046;-82
2023/01/15 14:29:29;;;;;;;9.45;4.10;;;;;;;-1.05;60.42;100572.44;4976953;28;20042;-83
2023/01/15 14:32:41;;;;;;;6.85;3.40;;;;;;;-0.78;60.55;100620.63;4961928;28;20069;-83
2023/01/15 14:36:34;;;;;;;9.27;3.67;;;;;;;-1.74;61.23;100448.09;4973986;28;20038;-83
2023/01/15 14:39:42;;;;;;;8.02;3.80;;;;;;;-1.78;60.32;100422.34;4982980;28;20045;-84
2023/01/15 14:43:50;;;;;;;;;;;;;;;;;;;;;
2023/01/15 14:47:18;;;;;;;6.13;3.00;;;;;;;-1.53;60.47;100468.75;4909239;28;20131;-81
2023/01/15 14:50:16;;;;;;;6.82;3.47;;;;;;;-1.33;60.41;100530.16;4960132;28;20057;-83
2023/01/15 14:53:12;;;;;;;;;;;;;;;;;;;;;
2023/01/15 14:57:12;;;;;;;8.02;3.88;;;;;;;-1.00;60.68;100588.00;4981923;28;20525;-81
2023/01/15 15:00:26;;;;;;;9.70;3.70;;;;;;;-2.18;60.46;100365.06;4935415;28;20054;-82
2023/01/15 15:03:04;;;;;;;9.80;4.07;;;;;;;-1.37;60.63;100500.16;4963564;28;20100;-82
2023/01/15 15:06:02;;;;;;;8.48;4.38;;;;;;;-0.70;60.62;100586.09;4980827;28;20464;-79
2023/01/15 15:09:16;;;;;;;8.55;4.70;;;;;;;-2.17;60.75;100372.81;4956672;28;20065;-82
2023/01/15 15:15:33;;;;;;;15.40;5.20;;;;;;;-0.94;60.69;100581.50;4985412;28;20038;-82
2023/01/15 15:18:11;;;;;;;10.23;4.82;;;;;;;-1.00;60.63;100581.22;4983386;28;20038;-80
2023/01/15 15:20:58;;;;;;;16.15;5.75;;;;;;;-1.11;61.42;100607.88;4965504;28;20513;-83
2023/01/15 15:23:38;;;;;;;12.35;5.68;;;;;;;-1.09;61.65;100573.94;4983170;28;20187;-79
2023/01/15 15:26:34;;;;;;;12.50;5.70;;;;;;;-1.62;61.54;100521.00;4980736;28;20080;-84
2023/01/15 15:29:25;;;;;;;18.73;7.60;;;;;;;-1.15;61.75;100576.22;4979675;28;20050;-81
2023/01/15 15:36:11;;;;;;;13.18;5.93;;;;;;;-1.86;61.89;100473.00;4967505;28;20503;-82
2023/01/15 15:39:16;;;;;;;14.23;6.68;;;;;;;-2.60;62.04;100345.06;4978543;28;20038;-81
2023/01/15 15:50:34;;;;;;;14.35;6.40;;;;;;;-2.18;62.23;100452.66;5009046;28;20064;-83
2023/01/15 15:53:05;;;;;;;15.07;7.20;;;;;;;-2.73;62.06;100346.94;4979859;28;20073;-82
2023/01/15 15:55:52;;;;;;;13.30;6.25;;;;;;;-1.37;62.07;100567.44;4996897;28;20093;-84
2023/01/15 15:58:38;;;;;;;18.27;6.20;;;;;;;-2.69;61.42;100339.47;4979501;28;20061;-83
2023/01/15 16:01:16;;;;;;;14.38;6.05;;;;;;;-2.60;61.86;100365.47;4946578;28;20184;-82
2023/01/15 16:03:48;;;;;;;13.60;6.00;;;;;;;-1.52;61.71;100593.06;4976103;28;20050;-83
2023/01/15 16:06:26;;;;;;;13.82;7.13;;;;;;;-2.98;62.11;100318.44;4959631;28;20045;-82
2023/01/15 16:09:04;;;;;;;12.55;5.80;;;;;;;-2.50;61.91;100388.06;4992649;28;20034;-82
2023/01/15 16:11:35;;;;;;;15.63;5.45;;;;;;;-2.90;62.18;100317.16;4991908;28;20129;-83
2023/01/15 16:14:14;;;;;;;17.85;6.57;;;;;;;-2.44;62.86;100396.06;4993943;28;20042;-81
2023/01/15 16:16:45;;;;;;;14.10;6.72;;;;;;;-2.73;61.80;100359.69;4983166;28;20038;-83
2023/01/15 16:19:24;;;;;;;16.92;6.10;;;;;;;-2.38;61.88;100405.69;4961588;28;20044;-80
2023/01/15 16:22:24;;;;;;;12.98;6.68;;;;;;;-1.58;62.69;100528.91;4944319;28;20092;-82
2023/01/15 16:25:06;;;;;;;15.50;6.47;;;;;;;-2.99;62.04;100293.75;4976658;28;20041;-82
2023/01/15 16:27:38;;;;;;;15.35;6.30;;;;;;;-1.74;62.33;100516.13;4959335;28;20035;-82
2023/01/15 16:30:15;;;;;;;15.82;6.55;;;;;;;-2.88;62.21;100326.66;4975228;28;20331;-81
2023/01/15 16:32:47;;;;;;;11.90;6.63;;;;;;;-2.89;62.49;100318.91;4962954;28;20081;-80
2023/01/15 16:35:23;;;;;;;14.32;6.13;;;;;;;-1.96;62.45;100494.59;4984396;28;20144;-81
2023/01/15 16:37:55;;;;;;;15.05;6.70;;;;;;;-2.75;62.39;100388.44;4986498;28;20101;-82
2023/01/15 16:40:30;;;;;;;10.93;5.38;;;;;;;-1.89;62.40;100501.78;4976038;28;20042;-79
2023/01/15 16:43:29;;;;;;;16.95;6.68;;;;;;;-3.10;62.27;100286.41;4995668;28;20045;-82
2023/01/15 16:46:28;;;;;;;10.02;5.18;;;;;;;-3.00;61.69;100358.22;4973907;28;20050;-80
2023/01/15 16:49:22;;;;;;;22.63;6.55;;;;;;;-2.16;62.87;100476.56;4977895;28;20497;-80
2023/01/15 16:51:52;;;;;;;13.55;6.47;;;;;;;-3.08;62.54;100333.19;4977004;28;20548;-81
2023/01/15 16:54:31;;;;;;;13.00;5.90;;;;;;;-2.14;62.34;100479.19;4976490;28;20073;-81
2023/01/15 16:57:10;;;;;;;13.07;5.50;;;;;;;-3.02;62.88;100353.03;4994968;28;20046;-81
2023/01/15 16:59:38;;;;;;;13.02;4.65;;;;;;;-2.34;62.52;100465.41;4978270;28;20046;-83
2023/01/15 17:02:19;;;;;;;12.15;5.03;;;;;;;-3.26;62.66;100337.28;4977773;28;20434;-82
2023/01/15 17:04:56;;;;;;;17.90;5.95;;;;;;;-2.62;62.82;100423.97;4965875;28;20101;-86
2023/01/15 17:07:36;;;;;;;15.82;6.43;;;;;;;-2.74;63.08;100393.59;4983442;28;20045;-82
2023/01/15 17:10:17;;;;;;;10.23;5.00;;;;;;;-2.29;62.11;100441.00;4968806;28;20038;-82
2023/01/15 17:12:46;;;;;;;13.93;5.97;;;;;;;-2.52;62.79;100415.16;4978407;28;20034;-83
2023/01/15 17:15:47;;;;;;;12.52;6.40;;;;;;;-2.53;62.97;100438.00;5000889;28;20545;-82
2023/01/15 17:18:57;;;;;;;12.52;5.53;;;;;;;-3.36;63.00;100325.72;4971131;28;20046;-82
2023/01/15 17:22:12;;;;;;;;;;;;;;;;;;;;;
2023/01/15 17:24:59;;;;;;;12.18;5.00;;;;;;;-2.88;63.21;100404.72;4982336;28;20069;-81